Time;durP1;ratioP1;P1;durP2;ratioP2;P2;SDS_P1;SDS_P2;PMS_P1;PMS_P2;Temp;Humidity;BMP_temperature;BMP_pressure;BME280_temperature;BME280_humidity;BME280_pressure;Samples;Min_cycle;Max_cycle;Signal;HPM_P1;HPM_P2
2023/09/10 00:02:05;;;;;;;22.60;15.13;;;;;;;21.25;100.00;101614.78;5195896;28;20025;-79
2023/09/10 00:04:36;;;;;;;23.67;14.95;;;;;;;21.24;100.00;101621.31;5195097;28;20022;-79
2023/09/10 00:07:08;;;;;;;25.73;15.98;;;;;;;21.25;100.00;101625.69;5218440;28;20124;-79
2023/09/10 00:09:38;;;;;;;19.88;15.65;;;;;;;21.26;100.00;101621.06;5195518;28;20025;-79
2023/09/10 00:12:09;;;;;;;16.77;13.30;;;;;;;21.26;100.00;101621.06;5193294;28;20048;-79
2023/09/10 00:14:40;;;;;;;31.40;16.75;;;;;;;21.21;100.00;101619.00;5192843;28;20108;-79
2023/09/10 00:17:10;;;;;;;21.27;14.70;;;;;;;21.19;100.00;101624.69;5196368;28;20119;-79
2023/09/10 00:19:41;;;;;;;22.10;14.93;;;;;;;21.13;100.00;101617.34;5196763;28;20021;-79
2023/09/10 00:22:11;;;;;;;17.00;12.18;;;;;;;21.11;100.00;101621.34;5197321;28;20026;-79
2023/09/10 00:24:42;;;;;;;16.17;11.75;;;;;;;21.07;100.00;101612.75;5192044;28;20503;-79
2023/09/10 00:27:13;;;;;;;21.58;13.10;;;;;;;21.06;100.00;101613.00;5193618;28;20149;-79
2023/09/10 00:29:44;;;;;;;25.83;17.40;;;;;;;21.06;100.00;101613.81;5195054;28;20025;-79
2023/09/10 00:32:14;;;;;;;28.42;17.60;;;;;;;21.03;100.00;101614.25;5190917;28;20021;-79
2023/09/10 00:34:45;;;;;;;27.35;16.45;;;;;;;21.04;100.00;101615.09;5197805;28;20035;-79
2023/09/10 00:37:16;;;;;;;28.75;15.75;;;;;;;21.04;100.00;101613.22;5197288;28;20026;-79
2023/09/10 00:39:47;;;;;;;24.65;16.42;;;;;;;21.01;100.00;101618.25;5199163;28;20037;-79
2023/09/10 00:42:17;;;;;;;28.77;18.65;;;;;;;21.00;100.00;101605.69;5193049;28;20025;-79
2023/09/10 00:44:48;;;;;;;24.73;16.63;;;;;;;20.98;100.00;101607.78;5190084;28;20025;-79
2023/09/10 00:47:18;;;;;;;30.23;17.00;;;;;;;20.96;100.00;101613.44;5190767;28;20071;-80
2023/09/10 00:49:49;;;;;;;21.25;17.05;;;;;;;20.91;100.00;101605.91;5198108;28;20041;-79
2023/09/10 00:52:22;;;;;;;27.50;17.88;;;;;;;20.89;100.00;101609.94;5198859;28;20503;-79
2023/09/10 00:54:52;;;;;;;29.42;17.15;;;;;;;20.86;100.00;101613.91;5196186;28;20096;-79
2023/09/10 00:57:25;;;;;;;29.40;17.80;;;;;;;20.83;100.00;101617.06;5197575;28;20026;-79
2023/09/10 00:59:56;;;;;;;25.67;17.40;;;;;;;20.81;100.00;101616.44;5194799;28;20033;-80
2023/09/10 01:02:27;;;;;;;20.90;15.73;;;;;;;20.80;100.00;101617.50;5185282;28;20100;-80
2023/09/10 01:04:59;;;;;;;23.77;16.70;;;;;;;20.76;100.00;101613.53;5191985;28;20033;-80
2023/09/10 01:07:45;;;;;;;25.20;16.85;;;;;;;20.73;100.00;101611.22;5194730;28;20029;-80
2023/09/10 01:10:16;;;;;;;24.55;17.08;;;;;;;20.71;100.00;101624.25;5191092;28;20037;-80
2023/09/10 01:13:00;;;;;;;20.60;14.52;;;;;;;20.68;100.00;101628.25;5193525;28;20034;-79
2023/09/10 01:15:39;;;;;;;17.20;12.65;;;;;;;20.62;100.00;101618.19;5198507;28;20030;-80
2023/09/10 01:18:20;;;;;;;20.02;13.70;;;;;;;20.59;100.00;101628.69;5199442;28;20455;-80
2023/09/10 01:21:13;;;;;;;21.50;12.82;;;;;;;20.56;100.00;101632.66;5194132;28;20093;-80
2023/09/10 01:23:58;;;;;;;17.50;13.70;;;;;;;20.52;100.00;101628.69;5188829;28;20034;-80
2023/09/10 01:26:28;;;;;;;24.80;14.80;;;;;;;20.53;100.00;101633.06;5194958;28;20018;-80
2023/09/10 01:28:59;;;;;;;31.58;16.25;;;;;;;20.51;100.00;101624.28;5187484;28;20087;-80
2023/09/10 01:31:36;;;;;;;28.58;15.55;;;;;;;20.51;100.00;101623.47;5196531;28;20549;-79
2023/09/10 01:34:10;;;;;;;23.65;16.42;;;;;;;20.54;100.00;101626.59;5196647;28;20028;-80
2023/09/10 01:36:45;;;;;;;26.00;16.80;;;;;;;20.51;100.00;101631.63;5197936;28;20025;-79
2023/09/10 01:39:18;;;;;;;29.20;16.77;;;;;;;20.48;100.00;101638.34;5194012;28;20129;-81
2023/09/10 01:41:50;;;;;;;24.73;16.25;;;;;;;20.47;100.00;101631.22;5200747;28;20032;-79
2023/09/10 01:44:23;;;;;;;15.32;10.90;;;;;;;20.42;100.00;101640.00;5198261;28;20026;-80
2023/09/10 01:46:55;;;;;;;14.27;9.63;;;;;;;20.38;100.00;101641.50;5192910;28;20076;-80
2023/09/10 01:49:26;;;;;;;12.98;10.85;;;;;;;20.35;100.00;101639.19;5193595;28;20026;-80
2023/09/10 01:51:57;;;;;;;16.70;12.95;;;;;;;20.32;100.00;101638.75;5195847;28;20049;-80
2023/09/10 01:54:27;;;;;;;18.13;11.73;;;;;;;20.28;100.00;101638.34;5198555;28;20087;-81
2023/09/10 01:56:58;;;;;;;17.65;13.07;;;;;;;20.29;100.00;101642.75;5197427;28;20430;-80
2023/09/10 01:59:29;;;;;;;20.63;14.80;;;;;;;20.25;100.00;101646.94;5195099;28;20029;-80
2023/09/10 02:01:59;;;;;;;21.10;15.10;;;;;;;20.21;100.00;101645.69;5196207;28;20021;-80
2023/09/10 02:04:30;;;;;;;21.05;13.07;;;;;;;20.23;100.00;101638.16;5192893;28;20104;-80
2023/09/10 02:07:02;;;;;;;21.63;13.70;;;;;;;20.23;100.00;101648.19;5193755;28;20096;-80
2023/09/10 02:09:32;;;;;;;29.65;16.05;;;;;;;20.22;100.00;101646.50;5194736;28;20029;-82
2023/09/10 02:12:03;;;;;;;24.58;16.80;;;;;;;20.18;100.00;101657.00;5196778;28;20025;-80
2023/09/10 02:14:34;;;;;;;32.45;18.60;;;;;;;20.12;100.00;101649.66;5192432;28;20037;-80
2023/09/10 02:17:07;;;;;;;28.85;17.75;;;;;;;20.08;100.00;101651.13;5197543;28;20033;-80
2023/09/10 02:19:38;;;;;;;23.17;15.38;;;;;;;20.04;100.00;101650.72;5190900;28;20447;-80
2023/09/10 02:22:08;;;;;;;19.85;14.85;;;;;;;20.04;100.00;101649.88;5196882;28;20104;-80
2023/09/10 02:24:39;;;;;;;15.55;12.80;;;;;;;20.01;100.00;101647.56;5195805;28;20082;-80
2023/09/10 02:27:11;;;;;;;15.32;9.05;;;;;;;19.92;100.00;101647.78;5194208;28;20029;-81
2023/09/10 02:29:41;;;;;;;18.10;11.43;;;;;;;19.88;100.00;101649.25;5197108;28;20032;-81
2023/09/10 02:32:12;;;;;;;50.72;11.30;;;;;;;19.89;100.00;101647.38;5192815;28;20521;-80
2023/09/10 02:34:42;;;;;;;12.65;10.25;;;;;;;19.86;100.00;101654.06;5198523;28;20060;-80
2023/09/10 02:37:14;;;;;;;7.57;6.88;;;;;;;19.88;100.00;101651.97;5193419;28;20026;-81
2023/09/10 02:39:44;;;;;;;8.77;6.68;;;;;;;19.85;100.00;101652.38;5195895;28;20038;-80
2023/09/10 02:42:16;;;;;;;7.70;6.43;;;;;;;19.82;100.00;101660.97;5196464;28;20040;-81
2023/09/10 02:44:47;;;;;;;13.50;7.70;;;;;;;19.82;100.00;101658.22;5192986;28;20549;-81
2023/09/10 02:47:17;;;;;;;17.67;12.85;;;;;;;19.83;100.00;101650.91;5196383;28;20026;-80
2023/09/10 02:49:48;;;;;;;23.42;15.63;;;;;;;19.85;100.00;101654.28;5197376;28;20048;-80
2023/09/10 02:52:19;;;;;;;13.93;11.13;;;;;;;19.85;100.00;101654.28;5209963;28;20053;-80
2023/09/10 02:54:49;;;;;;;16.48;12.23;;;;;;;19.84;100.00;101653.44;5196237;28;20025;-79
2023/09/10 02:57:20;;;;;;;15.45;12.00;;;;;;;19.84;100.00;101656.16;5191540;28;20029;-80
2023/09/10 02:59:50;;;;;;;15.98;11.73;;;;;;;19.82;100.00;101663.69;5197773;28;20029;-79
2023/09/10 03:02:22;;;;;;;14.25;11.52;;;;;;;19.81;100.00;101655.72;5191832;28;20018;-79
2023/09/10 03:04:53;;;;;;;17.00;9.40;;;;;;;19.80;100.00;101660.34;5196898;28;20030;-80
2023/09/10 03:07:24;;;;;;;13.40;11.10;;;;;;;19.81;100.00;101659.28;5195714;28;20047;-80
2023/09/10 03:09:54;;;;;;;20.25;14.27;;;;;;;19.81;100.00;101656.56;5190459;28;20044;-79
2023/09/10 03:12:27;;;;;;;15.18;12.65;;;;;;;19.81;100.00;101655.72;5196000;28;20140;-79
2023/09/10 03:14:58;;;;;;;28.88;12.82;;;;;;;19.77;100.00;101663.47;5196945;28;20029;-80
2023/09/10 03:17:29;;;;;;;111.07;13.15;;;;;;;19.72;100.00;101662.41;5191320;28;20403;-79
2023/09/10 03:19:59;;;;;;;171.07;17.27;;;;;;;19.62;100.00;101652.75;5195354;28;20029;-79
2023/09/10 03:22:30;;;;;;;13.55;11.55;;;;;;;19.57;100.00;101652.50;5193378;28;20460;-80
2023/09/10 03:25:00;;;;;;;15.90;10.75;;;;;;;19.51;100.00;101652.50;5190886;28;20116;-79
2023/09/10 03:27:31;;;;;;;15.65;10.98;;;;;;;19.52;100.00;101652.28;5194800;28;20018;-80
2023/09/10 03:30:05;;;;;;;13.48;11.55;;;;;;;19.49;100.00;101654.59;5196906;28;20033;-79
2023/09/10 03:32:35;;;;;;;17.40;11.90;;;;;;;19.48;100.00;101655.63;5186868;28;20045;-80
2023/09/10 03:35:06;;;;;;;12.00;9.05;;;;;;;19.44;100.00;101647.06;5195155;28;20402;-79
2023/09/10 03:37:37;;;;;;;13.75;11.05;;;;;;;19.45;100.00;101645.16;5190866;28;20050;-79
2023/09/10 03:40:08;;;;;;;18.52;14.23;;;;;;;19.41;100.00;101642.84;5193685;28;20021;-81
2023/09/10 03:42:39;;;;;;;20.02;12.95;;;;;;;19.40;100.00;101640.34;5191984;28;20026;-79
2023/09/10 03:45:09;;;;;;;16.83;11.48;;;;;;;19.39;100.00;101641.38;5195854;28;20040;-79
2023/09/10 03:47:40;;;;;;;20.95;15.40;;;;;;;19.39;100.00;101642.22;5196173;28;20087;-80
2023/09/10 03:50:11;;;;;;;19.17;14.90;;;;;;;19.39;100.00;101641.38;5194147;28;20030;-80
2023/09/10 03:52:41;;;;;;;18.90;14.35;;;;;;;19.38;100.00;101639.72;5196257;28;20026;-79
2023/09/10 03:55:12;;;;;;;16.33;13.05;;;;;;;19.35;100.00;101635.50;5196641;28;20037;-80
2023/09/10 03:57:43;;;;;;;25.58;16.20;;;;;;;19.36;100.00;101633.63;5192273;28;20056;-80
2023/09/10 04:00:13;;;;;;;24.13;15.73;;;;;;;19.38;100.00;101635.09;5196858;28;20030;-81
2023/09/10 04:02:45;;;;;;;15.70;12.20;;;;;;;19.36;100.00;101633.63;5196154;28;20033;-80
2023/09/10 04:05:16;;;;;;;17.10;11.18;;;;;;;19.33;100.00;101632.16;5191716;28;20058;-80
2023/09/10 04:07:47;;;;;;;15.18;12.55;;;;;;;19.30;100.00;101634.44;5195382;28;20046;-82
2023/09/10 04:10:17;;;;;;;17.52;13.15;;;;;;;19.28;100.00;101633.81;5192126;28;20483;-79
2023/09/10 04:12:50;;;;;;;20.25;13.75;;;;;;;19.23;100.00;101634.44;5196197;28;20062;-80
2023/09/10 04:15:21;;;;;;;17.77;13.20;;;;;;;19.19;100.00;101635.88;5195173;28;20025;-81
2023/09/10 04:17:51;;;;;;;19.60;14.77;;;;;;;19.17;100.00;101634.41;5193090;28;20025;-80
2023/09/10 04:20:22;;;;;;;30.08;12.07;;;;;;;19.12;100.00;101640.44;5199040;28;20024;-80
2023/09/10 04:22:52;;;;;;;13.77;10.48;;;;;;;19.10;100.00;101637.09;5196055;28;20025;-81
2023/09/10 04:25:23;;;;;;;10.98;9.77;;;;;;;19.07;100.00;101638.34;5198318;28;20449;-82
2023/09/10 04:27:54;;;;;;;12.50;9.77;;;;;;;19.06;100.00;101633.09;5200403;28;20079;-80
2023/09/10 04:30:24;;;;;;;12.68;10.32;;;;;;;19.04;100.00;101637.91;5196958;28;20037;-79
2023/09/10 04:32:55;;;;;;;15.38;10.82;;;;;;;19.01;100.00;101636.44;5198286;28;20124;-81
2023/09/10 04:35:25;;;;;;;18.60;10.75;;;;;;;19.00;100.00;101642.91;5196429;28;20018;-80
2023/09/10 04:37:56;;;;;;;11.55;9.18;;;;;;;18.95;100.00;101636.41;5200762;28;20030;-81
2023/09/10 04:40:26;;;;;;;10.90;8.80;;;;;;;18.92;100.00;101634.91;5198159;28;20070;-80
2023/09/10 04:42:57;;;;;;;11.38;9.23;;;;;;;18.92;100.00;101636.81;5200023;28;20028;-80
2023/09/10 04:45:27;;;;;;;11.43;9.80;;;;;;;18.91;100.00;101632.41;5197568;28;20029;-81
2023/09/10 04:47:58;;;;;;;12.07;9.77;;;;;;;18.92;100.00;101639.53;5197307;28;20018;-80
2023/09/10 04:50:29;;;;;;;14.07;10.35;;;;;;;18.91;100.00;101633.25;5198419;28;20025;-79
2023/09/10 04:53:01;;;;;;;12.93;10.43;;;;;;;18.89;100.00;101641.63;5194723;28;20022;-79
2023/09/10 04:55:31;;;;;;;13.75;10.13;;;;;;;18.89;100.00;101635.34;5196277;28;20054;-79
2023/09/10 04:58:02;;;;;;;14.50;10.55;;;;;;;18.89;100.00;101638.91;5193670;28;20144;-79
2023/09/10 05:00:33;;;;;;;12.95;9.10;;;;;;;18.89;100.00;101643.50;5195445;28;20038;-80
2023/09/10 05:03:03;;;;;;;13.00;10.43;;;;;;;18.89;100.00;101638.06;5197627;28;20022;-80
2023/09/10 05:05:34;;;;;;;14.00;11.50;;;;;;;18.91;100.00;101638.69;5181886;28;20048;-81
2023/09/10 05:08:04;;;;;;;18.90;13.18;;;;;;;18.93;100.00;101633.91;5203488;28;20100;-80
2023/09/10 05:10:35;;;;;;;12.60;11.27;;;;;;;18.94;100.00;101638.28;5189938;28;20026;-80
2023/09/10 05:13:05;;;;;;;18.55;13.10;;;;;;;18.95;100.00;101645.41;5201156;28;20391;-80
2023/09/10 05:15:36;;;;;;;15.73;11.25;;;;;;;18.95;100.00;101639.97;5199030;28;20021;-81
2023/09/10 05:18:07;;;;;;;15.13;10.05;;;;;;;18.96;100.00;101643.53;5199301;28;20057;-80
2023/09/10 05:20:37;;;;;;;11.30;10.13;;;;;;;18.96;100.00;101641.63;5196406;28;20018;-79
2023/09/10 05:23:08;;;;;;;13.27;9.32;;;;;;;18.96;100.00;101644.34;5200726;28;20033;-81
2023/09/10 05:25:38;;;;;;;14.50;10.10;;;;;;;18.97;100.00;101650.63;5196017;28;20038;-80
2023/09/10 05:28:09;;;;;;;14.27;10.50;;;;;;;19.01;100.00;101647.31;5197835;28;20024;-80
2023/09/10 05:30:39;;;;;;;13.77;8.00;;;;;;;19.02;100.00;101646.25;5197743;28;20013;-81
2023/09/10 05:33:10;;;;;;;11.05;9.77;;;;;;;19.05;100.00;101642.31;5202270;28;20108;-81
2023/09/10 05:35:40;;;;;;;12.35;9.07;;;;;;;19.04;100.00;101654.22;5198083;28;20026;-81
2023/09/10 05:38:11;;;;;;;9.93;8.32;;;;;;;19.07;100.00;101653.81;5201412;28;20022;-80
2023/09/10 05:40:41;;;;;;;10.85;9.23;;;;;;;19.13;100.00;101653.03;5203166;28;20395;-80
2023/09/10 05:43:12;;;;;;;14.10;11.73;;;;;;;19.19;100.00;101646.75;5200681;28;20025;-80
2023/09/10 05:45:45;;;;;;;17.98;13.80;;;;;;;19.24;100.00;101652.44;5199343;28;20028;-80
2023/09/10 05:48:15;;;;;;;15.20;11.50;;;;;;;19.31;100.00;101656.00;5195977;28;20014;-81
2023/09/10 05:50:46;;;;;;;14.98;11.25;;;;;;;19.36;100.00;101652.66;5197310;28;20033;-79
2023/09/10 05:53:16;;;;;;;14.55;10.52;;;;;;;19.44;100.00;101657.94;5205093;28;20100;-81
2023/09/10 05:55:47;;;;;;;16.38;11.25;;;;;;;19.51;100.00;101656.06;5199624;28;20021;-81
2023/09/10 05:58:19;;;;;;;14.85;11.65;;;;;;;19.61;100.00;101656.53;5188532;28;20029;-80
2023/09/10 06:00:52;;;;;;;21.58;15.50;;;;;;;19.71;100.00;101658.84;5189328;28;20113;-83
2023/09/10 06:03:22;;;;;;;19.67;13.98;;;;;;;19.84;100.00;101660.78;5194818;28;20028;-83
2023/09/10 06:05:53;;;;;;;16.50;11.27;;;;;;;20.09;100.00;101670.00;5198603;28;20022;-80
2023/09/10 06:08:24;;;;;;;25.67;16.02;;;;;;;20.49;100.00;101670.00;5197415;28;20068;-81
2023/09/10 06:10:55;;;;;;;20.73;14.93;;;;;;;20.89;100.00;101670.75;5191583;28;20450;-81
2023/09/10 06:13:26;;;;;;;19.60;13.45;;;;;;;21.31;100.00;101671.25;5197204;28;20104;-81
2023/09/10 06:15:58;;;;;;;24.55;14.80;;;;;;;21.68;100.00;101677.75;5200698;28;20112;-81
2023/09/10 06:18:28;;;;;;;21.88;14.10;;;;;;;22.06;100.00;101676.03;5194657;28;20078;-83
2023/09/10 06:20:59;;;;;;;22.75;13.10;;;;;;;22.43;100.00;101677.81;5194003;28;20029;-81
2023/09/10 06:23:29;;;;;;;20.30;13.18;;;;;;;22.74;100.00;101676.91;5185147;28;20033;-83
2023/09/10 06:26:00;;;;;;;19.33;12.98;;;;;;;23.03;100.00;101679.13;5200382;28;20075;-82
2023/09/10 06:28:30;;;;;;;18.65;13.05;;;;;;;23.30;100.00;101680.47;5174429;28;20033;-81
2023/09/10 06:31:01;;;;;;;18.52;11.55;;;;;;;23.56;100.00;101678.44;5194783;28;20029;-82
2023/09/10 06:33:33;;;;;;;18.27;11.70;;;;;;;23.75;100.00;101683.66;5200611;28;20034;-79
2023/09/10 06:36:03;;;;;;;22.08;12.55;;;;;;;24.02;100.00;101686.81;5181987;28;20025;-84
2023/09/10 06:38:34;;;;;;;21.02;11.55;;;;;;;24.30;100.00;101690.81;5195621;28;20395;-83
2023/09/10 06:41:04;;;;;;;23.20;12.18;;;;;;;24.40;100.00;101685.59;5190467;28;20017;-85
2023/09/10 06:43:35;;;;;;;22.25;11.07;;;;;;;24.71;100.00;101691.78;5191373;28;20093;-83
2023/09/10 06:46:05;;;;;;;23.50;11.73;;;;;;;24.94;100.00;101690.91;5190462;28;20075;-82
2023/09/10 06:48:36;;;;;;;16.88;10.18;;;;;;;25.13;100.00;101691.63;5194691;28;20029;-83
2023/09/10 06:51:07;;;;;;;19.75;10.50;;;;;;;25.34;100.00;101690.13;5189754;28;20041;-82
2023/09/10 06:53:37;;;;;;;13.90;9.90;;;;;;;25.56;100.00;101685.63;5188152;28;20017;-83
2023/09/10 06:56:08;;;;;;;23.70;11.13;;;;;;;25.71;100.00;101687.81;5192714;28;20021;-83
2023/09/10 06:58:38;;;;;;;13.63;9.48;;;;;;;25.97;100.00;101697.38;5190490;28;20042;-76
2023/09/10 07:01:09;;;;;;;14.23;9.90;;;;;;;26.20;100.00;101693.63;5199660;28;20033;-79
2023/09/10 07:03:40;;;;;;;15.15;11.02;;;;;;;26.42;100.00;101693.72;5195133;28;20100;-79
2023/09/10 07:06:10;;;;;;;14.98;8.77;;;;;;;26.81;100.00;101686.34;5202654;28;20017;-79
2023/09/10 07:08:41;;;;;;;17.52;9.05;;;;;;;26.96;100.00;101686.53;5203567;28;20018;-82
2023/09/10 07:11:11;;;;;;;22.17;10.13;;;;;;;27.07;100.00;101690.25;5198614;28;20022;-79
2023/09/10 07:13:41;;;;;;;14.63;9.05;;;;;;;27.19;100.00;101687.41;5199293;28;20159;-80
2023/09/10 07:16:12;;;;;;;14.98;9.00;;;;;;;27.20;100.00;101689.88;5195737;28;20033;-84
2023/09/10 07:18:42;;;;;;;19.45;8.95;;;;;;;27.31;100.00;101694.44;5195668;28;20022;-81
2023/09/10 07:21:13;;;;;;;17.13;8.65;;;;;;;27.50;100.00;101700.44;5188308;28;20028;-83
2023/09/10 07:23:43;;;;;;;16.40;8.98;;;;;;;27.68;100.00;101690.16;5197178;28;20013;-81
2023/09/10 07:26:14;;;;;;;16.50;9.43;;;;;;;27.80;100.00;101699.09;5199718;28;20030;-80
2023/09/10 07:28:44;;;;;;;15.90;8.60;;;;;;;27.91;100.00;101694.53;5191819;28;20084;-79
2023/09/10 07:31:15;;;;;;;15.65;9.18;;;;;;;28.11;100.00;101698.31;5188636;28;20025;-82
2023/09/10 07:33:45;;;;;;;21.63;8.55;;;;;;;28.36;100.00;101705.13;5198676;28;20048;-80
2023/09/10 07:36:16;;;;;;;15.48;7.78;;;;;;;28.68;100.00;101702.34;5190778;28;20091;-80
2023/09/10 07:38:48;;;;;;;11.88;7.50;;;;;;;28.89;100.00;101706.03;5200463;28;20022;-83
2023/09/10 07:41:19;;;;;;;13.38;7.65;;;;;;;29.02;100.00;101704.72;5202863;28;20079;-83
2023/09/10 07:43:49;;;;;;;15.63;8.48;;;;;;;29.16;100.00;101705.91;5190638;28;20025;-83
2023/09/10 07:46:20;;;;;;;15.57;7.95;;;;;;;29.24;100.00;101710.09;5199047;28;20018;-82
2023/09/10 07:48:50;;;;;;;13.75;7.97;;;;;;;29.17;100.00;101699.31;5194602;28;20060;-81
2023/09/10 07:51:21;;;;;;;11.02;7.10;;;;;;;29.20;100.00;101701.50;5197311;28;20484;-81
2023/09/10 07:53:52;;;;;;;10.32;7.47;;;;;;;29.41;100.00;101705.16;5205492;28;20056;-82
2023/09/10 07:56:22;;;;;;;13.55;7.40;;;;;;;29.76;100.00;101695.31;5204625;28;20084;-82
2023/09/10 07:58:53;;;;;;;16.73;7.13;;;;;;;29.78;100.00;101698.66;5202573;28;20067;-81
2023/09/10 08:01:23;;;;;;;18.02;7.03;;;;;;;29.79;100.00;101703.09;5205153;28;20036;-82
2023/09/10 08:03:54;;;;;;;11.85;6.85;;;;;;;30.03;100.00;101693.16;5210079;28;20047;-82
2023/09/10 08:06:24;;;;;;;14.50;6.32;;;;;;;30.24;100.00;101709.78;5207104;28;20028;-82
2023/09/10 08:08:55;;;;;;;12.73;6.50;;;;;;;30.11;100.00;101706.41;5198670;28;20025;-83
2023/09/10 08:11:25;;;;;;;15.23;6.40;;;;;;;30.38;100.00;101708.09;5206469;28;20028;-82
2023/09/10 08:13:56;;;;;;;14.05;6.18;;;;;;;30.50;100.00;101705.88;5201569;28;20432;-83
2023/09/10 08:16:26;;;;;;;12.65;6.88;;;;;;;30.67;100.00;101709.16;5201752;28;20034;-83
2023/09/10 08:18:57;;;;;;;10.23;6.30;;;;;;;30.97;100.00;101712.97;5195314;28;20025;-81
2023/09/10 08:21:27;;;;;;;16.33;5.90;;;;;;;31.08;100.00;101717.38;5201594;28;20085;-82
2023/09/10 08:23:58;;;;;;;11.13;6.00;;;;;;;31.26;100.00;101715.06;5206264;28;20051;-81
2023/09/10 08:26:28;;;;;;;13.65;6.30;;;;;;;31.09;100.00;101710.72;5198924;28;20025;-82
2023/09/10 08:28:59;;;;;;;12.05;5.85;;;;;;;31.39;100.00;101708.94;5206413;28;20026;-83
2023/09/10 08:31:30;;;;;;;13.43;6.45;;;;;;;31.48;100.00;101701.69;5204946;28;20029;-81
2023/09/10 08:34:00;;;;;;;18.08;6.28;;;;;;;31.53;100.00;101698.03;5198514;28;20113;-82
2023/09/10 08:36:31;;;;;;;14.38;7.03;;;;;;;31.56;100.00;101695.53;5201185;28;20033;-84
2023/09/10 08:39:01;;;;;;;11.00;6.20;;;;;;;31.78;100.00;101699.81;5200707;28;20029;-83
2023/09/10 08:41:43;;;;;;;11.85;6.53;;;;;;;31.38;100.00;101704.53;5202646;28;20022;-83
2023/09/10 08:44:17;;;;;;;13.63;6.18;;;;;;;31.51;100.00;101706.66;5208391;28;20077;-82
2023/09/10 08:46:51;;;;;;;12.05;6.53;;;;;;;31.92;100.00;101707.22;5200253;28;20049;-84
2023/09/10 08:49:23;;;;;;;15.00;6.38;;;;;;;32.09;100.00;101703.22;5184490;28;20034;-86
2023/09/10 08:51:55;;;;;;;9.38;5.57;;;;;;;32.29;100.00;101705.81;5186958;28;20100;-85
2023/09/10 08:54:26;;;;;;;13.15;6.45;;;;;;;32.63;100.00;101705.78;5195341;28;20021;-88
2023/09/10 08:56:57;;;;;;;15.93;6.15;;;;;;;32.62;100.00;101704.13;5188562;28;20034;-86
2023/09/10 08:59:30;;;;;;;9.88;5.75;;;;;;;32.95;100.00;101698.78;5197874;28;20083;-88
2023/09/10 09:02:00;;;;;;;12.02;6.10;;;;;;;32.89;100.00;101702.72;5197363;28;20104;-88
2023/09/10 09:04:31;;;;;;;9.77;5.80;;;;;;;32.95;100.00;101702.41;5193772;28;20166;-87
2023/09/10 09:07:02;;;;;;;12.40;5.60;;;;;;;33.17;100.00;101703.78;5186252;28;20096;-91
2023/09/10 09:09:39;;;;;;;13.10;5.95;;;;;;;33.25;100.00;101697.56;5191288;28;20128;-90
2023/09/10 09:12:13;;;;;;;10.88;5.45;;;;;;;33.53;100.00;101703.31;5197318;28;20548;-88
2023/09/10 09:14:48;;;;;;;17.08;6.60;;;;;;;33.65;100.00;101706.50;5195424;28;20036;-89
2023/09/10 09:17:20;;;;;;;11.35;6.20;;;;;;;33.64;100.00;101705.66;5202436;28;20426;-91
2023/09/10 09:19:51;;;;;;;12.00;5.88;;;;;;;33.47;100.00;101714.53;5189080;28;20022;-90
2023/09/10 09:22:24;;;;;;;10.85;5.75;;;;;;;33.27;100.00;101700.88;5188472;28;20399;-89
2023/09/10 09:24:55;;;;;;;11.32;5.85;;;;;;;33.29;100.00;101701.41;5190268;28;20026;-89
2023/09/10 09:27:26;;;;;;;9.70;5.85;;;;;;;33.34;100.00;101693.00;5196390;28;20403;-88
2023/09/10 09:29:57;;;;;;;14.40;6.07;;;;;;;33.48;100.00;101687.53;5195025;28;20034;-87
2023/09/10 09:32:28;;;;;;;11.25;6.05;;;;;;;33.73;100.00;101689.09;5193386;28;20055;-90
2023/09/10 09:34:58;;;;;;;17.55;6.28;;;;;;;33.47;100.00;101697.00;5201588;28;20077;-85
2023/09/10 09:37:32;;;;;;;19.73;6.68;;;;;;;33.51;100.00;101689.72;5201666;28;20441;-86
2023/09/10 09:40:04;;;;;;;14.23;5.83;;;;;;;33.60;100.00;101678.75;5187514;28;20021;-85
2023/09/10 09:42:34;;;;;;;8.82;5.63;;;;;;;33.83;100.00;101686.16;5195005;28;20308;-86
2023/09/10 09:45:05;;;;;;;9.98;6.03;;;;;;;33.84;100.00;101684.19;5195023;28;20036;-84
2023/09/10 09:47:36;;;;;;;10.02;6.05;;;;;;;33.93;100.00;101682.38;5193137;28;20044;-87
2023/09/10 09:50:13;;;;;;;8.43;5.07;;;;;;;34.39;100.00;101681.59;5188553;28;20029;-87
2023/09/10 09:52:51;;;;;;;8.48;5.35;;;;;;;34.16;100.00;101681.47;5200049;28;20476;-89
2023/09/10 09:55:22;;;;;;;10.98;5.68;;;;;;;33.89;100.00;101686.88;5188235;28;20022;-86
2023/09/10 09:57:53;;;;;;;11.65;6.45;;;;;;;33.81;100.00;101680.06;5199272;28;20112;-88
2023/09/10 10:00:23;;;;;;;18.77;6.88;;;;;;;33.90;100.00;101680.22;5195230;28;20028;-87
2023/09/10 10:02:54;;;;;;;14.18;6.38;;;;;;;33.77;100.00;101673.47;5197295;28;20032;-87
2023/09/10 10:05:24;;;;;;;14.98;6.20;;;;;;;33.91;100.00;101679.09;5188315;28;20014;-87
2023/09/10 10:07:55;;;;;;;20.35;6.00;;;;;;;34.04;100.00;101678.34;5190685;28;20021;-87
2023/09/10 10:10:26;;;;;;;17.65;6.32;;;;;;;34.01;100.00;101679.75;5185278;28;20018;-87
2023/09/10 10:12:58;;;;;;;20.35;6.45;;;;;;;34.21;100.00;101675.81;5185529;28;20030;-87
2023/09/10 10:15:29;;;;;;;11.38;5.78;;;;;;;33.97;100.00;101678.72;5194182;28;20105;-87
2023/09/10 10:18:03;;;;;;;14.25;5.50;;;;;;;33.93;100.00;101676.81;5189838;28;20076;-87
2023/09/10 10:20:34;;;;;;;10.93;6.38;;;;;;;33.80;100.00;101672.03;5179877;28;20029;-87
2023/09/10 10:23:05;;;;;;;15.43;6.30;;;;;;;33.66;100.00;101683.94;5185621;28;20076;-87
2023/09/10 10:25:36;;;;;;;14.35;5.75;;;;;;;33.68;100.00;101680.84;5196107;28;20112;-88
2023/09/10 10:28:09;;;;;;;12.63;5.78;;;;;;;33.66;100.00;101683.09;5190014;28;20478;-87
2023/09/10 10:31:02;;;;;;;13.65;6.15;;;;;;;33.66;100.00;101677.53;5195488;28;20030;-87
2023/09/10 10:33:37;;;;;;;15.15;6.30;;;;;;;33.59;100.00;101672.38;5192195;28;20140;-87
2023/09/10 10:36:17;;;;;;;14.00;6.40;;;;;;;33.69;100.00;101672.19;5183479;28;20029;-88
2023/09/10 10:38:52;;;;;;;14.65;6.43;;;;;;;33.63;100.00;101672.56;5185772;28;20037;-87
2023/09/10 10:41:26;;;;;;;14.50;6.05;;;;;;;33.27;100.00;101664.72;5196480;28;20017;-87
2023/09/10 10:44:07;;;;;;;16.25;5.90;;;;;;;33.26;100.00;101660.28;5189110;28;20026;-87
2023/09/10 10:46:39;;;;;;;16.73;6.30;;;;;;;33.47;100.00;101655.28;5184672;28;20029;-88
2023/09/10 10:49:10;;;;;;;15.85;5.75;;;;;;;33.52;100.00;101671.06;5188447;28;20072;-88
2023/09/10 10:51:45;;;;;;;16.15;5.72;;;;;;;33.64;100.00;101658.38;5199897;28;20021;-88
2023/09/10 10:54:16;;;;;;;11.70;5.90;;;;;;;33.69;100.00;101654.69;5185787;28;20025;-88
2023/09/10 10:56:47;;;;;;;12.65;5.57;;;;;;;33.75;100.00;101656.25;5178094;28;20637;-87
2023/09/10 10:59:18;;;;;;;15.30;5.55;;;;;;;33.73;100.00;101650.97;5196749;28;20022;-85
2023/09/10 11:02:08;;;;;;;17.13;5.97;;;;;;;33.68;100.00;101644.66;5177055;28;20476;-88
2023/09/10 11:04:54;;;;;;;9.23;5.43;;;;;;;33.60;100.00;101643.41;5191780;28;20032;-87
2023/09/10 11:07:28;;;;;;;11.45;5.30;;;;;;;33.65;100.00;101640.53;5190848;28;20014;-86
2023/09/10 11:10:18;;;;;;;12.32;5.82;;;;;;;33.73;100.00;101630.66;5190513;28;20025;-87
2023/09/10 11:13:05;;;;;;;15.70;5.93;;;;;;;33.99;100.00;101631.13;5188600;28;20018;-87
2023/09/10 11:15:35;;;;;;;18.55;6.22;;;;;;;33.96;100.00;101632.53;5199884;28;20073;-87
2023/09/10 11:18:34;;;;;;;16.55;5.68;;;;;;;34.13;100.00;101633.91;5187428;28;20108;-87
2023/09/10 11:21:05;;;;;;;14.25;6.18;;;;;;;34.22;100.00;101635.69;5191265;28;20109;-87
2023/09/10 11:23:40;;;;;;;19.27;5.55;;;;;;;34.25;100.00;101628.69;5194582;28;20030;-87
2023/09/10 11:26:11;;;;;;;9.15;5.40;;;;;;;34.24;100.00;101625.06;5193224;28;20409;-87